Time;durP1;ratioP1;P1;durP2;ratioP2;P2;SDS_P1;SDS_P2;PMS_P1;PMS_P2;Temp;Humidity;BMP_temperature;BMP_pressure;BME280_temperature;BME280_humidity;BME280_pressure;Samples;Min_cycle;Max_cycle;Signal;HPM_P1;HPM_P2
2024/01/25 00:00:23;;;;;;;12.63;4.97;;;17.20;57.00;;;;;;5052279;28;20542;-77
2024/01/25 00:02:52;;;;;;;14.27;4.60;;;17.20;57.00;;;;;;5052363;28;20451;-76
2024/01/25 00:05:20;;;;;;;12.37;4.70;;;17.20;56.90;;;;;;5052287;28;20454;-76
2024/01/25 00:07:48;;;;;;;14.40;4.83;;;17.20;56.90;;;;;;5060556;28;20427;-77
2024/01/25 00:10:17;;;;;;;18.50;5.20;;;17.20;56.90;;;;;;5069463;28;20477;-77
2024/01/25 00:12:46;;;;;;;12.57;5.00;;;17.20;57.00;;;;;;5071000;28;20441;-77
2024/01/25 00:15:16;;;;;;;15.07;4.90;;;17.20;57.00;;;;;;5066653;28;20458;-77
2024/01/25 00:17:44;;;;;;;9.57;4.97;;;17.10;56.90;;;;;;5052164;28;20496;-75
2024/01/25 00:20:12;;;;;;;15.33;5.87;;;17.20;57.10;;;;;;5051114;28;20479;-77
2024/01/25 00:22:41;;;;;;;22.37;5.20;;;17.20;57.10;;;;;;5051770;28;20446;-78
2024/01/25 00:25:09;;;;;;;15.93;5.30;;;17.20;57.10;;;;;;5050252;28;20562;-78
2024/01/25 00:27:37;;;;;;;11.43;4.30;;;17.20;57.20;;;;;;5078323;28;20446;-78
2024/01/25 00:30:07;;;;;;;15.80;5.57;;;17.10;57.20;;;;;;5090712;28;20506;-79
2024/01/25 00:32:36;;;;;;;13.73;5.07;;;17.10;56.90;;;;;;5091688;28;20468;-77
2024/01/25 00:35:05;;;;;;;15.33;5.67;;;17.10;57.30;;;;;;5077469;28;20433;-77
2024/01/25 00:37:34;;;;;;;14.83;4.60;;;17.10;57.30;;;;;;5073454;28;20441;-78
2024/01/25 00:40:03;;;;;;;11.97;4.70;;;17.10;57.40;;;;;;5072208;28;20510;-75
2024/01/25 00:42:31;;;;;;;10.63;4.70;;;17.10;57.40;;;;;;5070323;28;20432;-77
2024/01/25 00:45:00;;;;;;;10.13;4.23;;;17.10;57.40;;;;;;5059810;28;20427;-77
2024/01/25 00:47:29;;;;;;;12.57;5.50;;;17.10;57.50;;;;;;5068588;28;20441;-76
2024/01/25 00:49:59;;;;;;;14.03;5.07;;;17.10;57.40;;;;;;5071021;28;20457;-76
2024/01/25 00:52:28;;;;;;;16.03;5.90;;;17.00;57.30;;;;;;5070536;28;20445;-75
2024/01/25 00:54:56;;;;;;;14.23;4.77;;;17.00;57.10;;;;;;5070973;28;20987;-76
2024/01/25 00:57:25;;;;;;;17.23;5.90;;;17.00;57.30;;;;;;5070835;28;20437;-77
2024/01/25 00:59:54;;;;;;;15.10;5.53;;;17.00;57.50;;;;;;5062041;28;20481;-76
2024/01/25 01:02:23;;;;;;;15.87;5.93;;;17.00;57.60;;;;;;5061685;28;20449;-76
2024/01/25 01:04:52;;;;;;;18.83;6.10;;;17.00;57.60;;;;;;5050366;28;20450;-75
2024/01/25 01:07:22;;;;;;;14.90;4.90;;;17.00;57.50;;;;;;5051481;28;20533;-77
2024/01/25 01:09:56;;;;;;;15.60;5.57;;;17.00;57.60;;;;;;5051592;28;20498;-77
2024/01/25 01:12:25;;;;;;;15.27;5.50;;;17.00;57.40;;;;;;5050692;28;20438;-76
2024/01/25 01:14:52;;;;;;;20.63;5.40;;;17.00;57.60;;;;;;5052045;28;20480;-76
2024/01/25 01:17:21;;;;;;;13.60;5.20;;;17.00;57.80;;;;;;5058612;28;20477;-76
2024/01/25 01:19:50;;;;;;;15.03;5.27;;;17.00;57.40;;;;;;5056926;28;20544;-76
2024/01/25 01:22:18;;;;;;;18.30;5.80;;;17.00;57.70;;;;;;5049442;28;20438;-76
2024/01/25 01:24:48;;;;;;;15.30;5.70;;;17.00;57.60;;;;;;5043025;28;20535;-76
2024/01/25 01:27:17;;;;;;;14.37;5.87;;;16.90;57.60;;;;;;5051841;28;20533;-76
2024/01/25 01:29:45;;;;;;;13.37;5.73;;;17.00;57.80;;;;;;5052172;28;20463;-75
2024/01/25 01:32:13;;;;;;;14.70;6.07;;;16.90;58.00;;;;;;5052347;28;21013;-76
2024/01/25 01:34:41;;;;;;;10.23;5.33;;;16.90;57.60;;;;;;5059437;28;20454;-76
2024/01/25 01:37:09;;;;;;;13.47;5.60;;;16.90;57.80;;;;;;5066582;28;20442;-75
2024/01/25 01:39:38;;;;;;;15.47;5.47;;;16.90;57.80;;;;;;5070674;28;20478;-76
2024/01/25 01:42:07;;;;;;;17.77;5.80;;;16.90;57.80;;;;;;5071423;28;20446;-76
2024/01/25 01:44:35;;;;;;;15.40;5.67;;;16.90;57.80;;;;;;5056572;28;20447;-75
2024/01/25 01:47:04;;;;;;;14.37;5.90;;;16.90;57.80;;;;;;5047618;28;20447;-75
2024/01/25 01:49:32;;;;;;;15.83;5.50;;;16.90;57.90;;;;;;5050575;28;20446;-75
2024/01/25 01:52:00;;;;;;;14.60;6.20;;;16.80;57.70;;;;;;5058204;28;20449;-75
2024/01/25 01:54:29;;;;;;;19.03;5.70;;;16.80;57.70;;;;;;5066829;28;20499;-75
2024/01/25 01:56:56;;;;;;;16.07;5.60;;;16.80;58.00;;;;;;5070329;28;20491;-75
2024/01/25 01:59:26;;;;;;;14.13;6.10;;;16.80;58.60;;;;;;5074513;28;20449;-76
2024/01/25 02:01:54;;;;;;;13.90;5.33;;;16.80;57.90;;;;;;5074265;28;20445;-76
2024/01/25 02:04:23;;;;;;;17.47;6.30;;;16.80;58.00;;;;;;5073851;28;20441;-76
2024/01/25 02:06:51;;;;;;;21.57;6.93;;;16.80;57.90;;;;;;5075185;28;20948;-76
2024/01/25 02:09:19;;;;;;;17.03;6.20;;;16.80;58.00;;;;;;5061502;28;20454;-75
2024/01/25 02:11:48;;;;;;;13.53;5.70;;;16.80;58.20;;;;;;5073601;28;20556;-75
2024/01/25 02:14:16;;;;;;;15.00;5.17;;;16.80;58.20;;;;;;5073218;28;20430;-75
2024/01/25 02:16:46;;;;;;;14.80;4.93;;;16.80;58.10;;;;;;5054264;28;20518;-76
2024/01/25 02:19:15;;;;;;;15.87;5.83;;;16.80;58.20;;;;;;5053746;28;20881;-76
2024/01/25 02:21:43;;;;;;;15.17;6.00;;;16.80;58.30;;;;;;5053414;28;20485;-76
2024/01/25 02:24:13;;;;;;;13.57;5.60;;;16.80;58.10;;;;;;5051674;28;20516;-76
2024/01/25 02:26:40;;;;;;;14.30;5.43;;;16.80;58.20;;;;;;5063331;28;20438;-76
2024/01/25 02:29:09;;;;;;;18.33;5.57;;;16.80;58.20;;;;;;5073650;28;20494;-75
2024/01/25 02:31:38;;;;;;;19.60;5.40;;;16.80;58.30;;;;;;5073990;28;20441;-76
2024/01/25 02:34:06;;;;;;;18.20;5.43;;;16.80;58.20;;;;;;5072978;28;20529;-76
2024/01/25 02:36:34;;;;;;;14.17;5.93;;;16.70;58.10;;;;;;5073256;28;20452;-75
2024/01/25 02:39:04;;;;;;;18.50;5.70;;;16.70;58.50;;;;;;5073433;28;20524;-75
2024/01/25 02:41:33;;;;;;;16.27;5.47;;;16.80;58.40;;;;;;5072809;28;20999;-75
2024/01/25 02:44:01;;;;;;;14.47;6.20;;;16.80;58.40;;;;;;5060382;28;20909;-76
2024/01/25 02:46:29;;;;;;;18.77;6.80;;;16.70;58.20;;;;;;5069864;28;20445;-75
2024/01/25 02:48:57;;;;;;;16.93;6.50;;;16.70;58.30;;;;;;5073049;28;20442;-75
2024/01/25 02:51:26;;;;;;;14.43;6.03;;;16.80;58.50;;;;;;5073007;28;20559;-75
2024/01/25 02:53:53;;;;;;;12.37;6.20;;;16.70;58.20;;;;;;5072603;28;20445;-75
2024/01/25 02:56:21;;;;;;;14.57;6.10;;;16.70;58.50;;;;;;5073090;28;20457;-75
2024/01/25 02:58:51;;;;;;;18.60;6.30;;;16.70;58.40;;;;;;5063884;28;20454;-74
2024/01/25 03:01:19;;;;;;;16.10;6.63;;;16.70;58.20;;;;;;5067793;28;20523;-74
2024/01/25 03:03:48;;;;;;;18.03;7.00;;;16.70;58.20;;;;;;5072242;28;20445;-74
2024/01/25 03:06:16;;;;;;;24.10;7.17;;;16.70;58.40;;;;;;5072719;28;20445;-74
2024/01/25 03:08:44;;;;;;;17.80;6.80;;;16.70;58.50;;;;;;5072829;28;20468;-74
2024/01/25 03:11:12;;;;;;;16.57;6.10;;;16.70;58.50;;;;;;5071933;28;20476;-74
2024/01/25 03:13:40;;;;;;;13.50;5.90;;;16.70;58.60;;;;;;5065164;28;20504;-74
2024/01/25 03:16:09;;;;;;;14.57;6.10;;;16.70;58.50;;;;;;5064440;28;20450;-75
2024/01/25 03:18:37;;;;;;;19.93;7.40;;;16.70;58.80;;;;;;5072342;28;20544;-74
2024/01/25 03:21:06;;;;;;;13.63;5.87;;;16.70;58.50;;;;;;5072269;28;20574;-74
2024/01/25 03:23:34;;;;;;;16.87;7.53;;;16.70;58.70;;;;;;5072054;28;20441;-74
2024/01/25 03:26:03;;;;;;;18.40;7.20;;;16.70;59.20;;;;;;5072174;28;20441;-74
2024/01/25 03:28:31;;;;;;;23.10;7.97;;;16.70;58.70;;;;;;5069640;28;20453;-74
2024/01/25 03:31:00;;;;;;;21.00;7.27;;;16.70;58.50;;;;;;5052499;28;20462;-74
2024/01/25 03:33:32;;;;;;;16.20;7.00;;;16.70;58.80;;;;;;5051618;28;20451;-74
2024/01/25 03:36:03;;;;;;;20.40;8.30;;;16.70;58.70;;;;;;5052398;28;20949;-74
2024/01/25 03:38:31;;;;;;;20.40;8.37;;;16.70;58.60;;;;;;5052276;28;20430;-74
2024/01/25 03:40:59;;;;;;;21.47;8.30;;;16.70;58.40;;;;;;5051931;28;20536;-74
2024/01/25 03:43:27;;;;;;;19.10;8.90;;;16.70;58.70;;;;;;5051500;28;20455;-74
2024/01/25 03:46:09;;;;;;;20.17;8.30;;;16.70;58.70;;;;;;5052135;28;20457;-74
2024/01/25 03:48:39;;;;;;;17.07;7.63;;;16.70;58.70;;;;;;5060290;28;20500;-74
2024/01/25 03:51:07;;;;;;;22.40;9.00;;;16.70;58.80;;;;;;5072293;28;20450;-74
2024/01/25 03:53:35;;;;;;;20.30;9.50;;;16.70;58.50;;;;;;5083182;28;20463;-75
2024/01/25 03:56:03;;;;;;;19.83;8.23;;;16.70;58.70;;;;;;5089510;28;20444;-74
2024/01/25 03:58:32;;;;;;;20.33;9.37;;;16.70;58.60;;;;;;5092079;28;20442;-75
2024/01/25 04:01:00;;;;;;;25.13;9.50;;;16.70;58.60;;;;;;5065538;28;20535;-75
2024/01/25 04:03:28;;;;;;;21.60;8.60;;;16.70;58.80;;;;;;5044507;28;20522;-75
2024/01/25 04:05:58;;;;;;;19.53;8.83;;;16.70;58.70;;;;;;5046283;28;20458;-75
2024/01/25 04:08:26;;;;;;;27.70;9.93;;;16.70;58.70;;;;;;5046279;28;20477;-74
2024/01/25 04:10:54;;;;;;;19.00;9.10;;;16.70;58.80;;;;;;5051127;28;20458;-74
2024/01/25 04:13:22;;;;;;;21.00;9.37;;;16.70;58.80;;;;;;5044942;28;20531;-74
2024/01/25 04:15:52;;;;;;;22.30;9.10;;;16.70;58.80;;;;;;5049722;28;20481;-74
2024/01/25 04:18:20;;;;;;;20.43;9.57;;;16.70;58.80;;;;;;5051512;28;20442;-75
2024/01/25 04:20:49;;;;;;;19.63;9.17;;;16.70;58.80;;;;;;5048789;28;20850;-75
2024/01/25 04:23:19;;;;;;;22.10;9.07;;;16.70;58.70;;;;;;5050979;28;20526;-75
2024/01/25 04:25:48;;;;;;;20.77;8.80;;;16.70;58.70;;;;;;5051069;28;20536;-75
2024/01/25 04:28:17;;;;;;;21.90;8.63;;;16.70;58.70;;;;;;5043029;28;20442;-75
2024/01/25 04:30:45;;;;;;;20.17;9.50;;;16.70;58.70;;;;;;5040392;28;20550;-75
2024/01/25 04:33:13;;;;;;;22.93;8.97;;;16.70;58.80;;;;;;5050189;28;20433;-75
2024/01/25 04:35:41;;;;;;;22.30;8.90;;;16.70;59.20;;;;;;5037362;28;20501;-75
2024/01/25 04:38:09;;;;;;;21.33;8.70;;;16.70;58.70;;;;;;5049832;28;20451;-75
2024/01/25 04:40:39;;;;;;;16.17;8.07;;;16.70;58.50;;;;;;5051158;28;20471;-75
2024/01/25 04:43:07;;;;;;;18.10;8.37;;;16.70;58.70;;;;;;5042199;28;20474;-75
2024/01/25 04:45:35;;;;;;;21.50;8.43;;;16.70;58.80;;;;;;5050496;28;20504;-75
2024/01/25 04:48:04;;;;;;;20.03;8.10;;;16.60;58.60;;;;;;5050512;28;20446;-75
2024/01/25 04:50:33;;;;;;;20.23;8.00;;;16.70;58.80;;;;;;5050583;28;20462;-75
2024/01/25 04:53:02;;;;;;;19.83;8.30;;;16.70;58.80;;;;;;5042129;28;20438;-76
2024/01/25 04:55:31;;;;;;;12.30;6.77;;;16.60;58.80;;;;;;5049306;28;20459;-75
2024/01/25 04:58:00;;;;;;;24.40;8.20;;;16.60;58.60;;;;;;5050375;28;20451;-74
2024/01/25 05:00:28;;;;;;;19.10;7.40;;;16.60;58.70;;;;;;5046273;28;20527;-75
2024/01/25 05:02:56;;;;;;;18.10;7.97;;;16.60;59.30;;;;;;5050083;28;20540;-76
2024/01/25 05:05:24;;;;;;;22.07;8.53;;;16.60;58.90;;;;;;5050430;28;20459;-75
2024/01/25 05:07:53;;;;;;;15.70;7.90;;;16.60;58.50;;;;;;5050133;28;20464;-75
2024/01/25 05:10:22;;;;;;;23.20;7.43;;;16.60;59.70;;;;;;5042501;28;20478;-75
2024/01/25 05:12:50;;;;;;;18.07;8.20;;;16.60;59.00;;;;;;5048281;28;20548;-74
2024/01/25 05:15:20;;;;;;;17.53;7.30;;;16.60;58.90;;;;;;5050550;28;20447;-75
2024/01/25 05:17:48;;;;;;;15.00;6.93;;;16.60;59.00;;;;;;5050219;28;20446;-77
2024/01/25 05:20:17;;;;;;;15.93;7.60;;;16.60;59.00;;;;;;5042509;28;20846;-75
2024/01/25 05:22:46;;;;;;;18.20;7.90;;;16.60;58.90;;;;;;5050400;28;20562;-77
2024/01/25 05:25:16;;;;;;;17.53;8.10;;;16.60;59.00;;;;;;5043940;28;20458;-76
2024/01/25 05:27:44;;;;;;;19.17;7.23;;;16.60;59.10;;;;;;5050271;28;20478;-76
2024/01/25 05:30:13;;;;;;;16.40;7.77;;;16.60;59.00;;;;;;5043241;28;20458;-76
2024/01/25 05:32:43;;;;;;;15.50;6.80;;;16.60;59.20;;;;;;5049660;28;20496;-76
2024/01/25 05:35:11;;;;;;;19.27;7.60;;;16.60;59.20;;;;;;5050220;28;20953;-77
2024/01/25 05:37:39;;;;;;;18.80;7.07;;;16.60;59.10;;;;;;5045120;28;20470;-76
2024/01/25 05:40:09;;;;;;;15.03;6.43;;;16.50;58.60;;;;;;5049345;28;20449;-76
2024/01/25 05:42:37;;;;;;;15.70;6.80;;;16.50;59.10;;;;;;5049061;28;20510;-75
2024/01/25 05:45:06;;;;;;;18.80;7.20;;;16.50;59.00;;;;;;5047163;28;20455;-75
2024/01/25 05:47:34;;;;;;;16.10;6.83;;;16.50;59.10;;;;;;5059024;28;20500;-75
2024/01/25 05:50:05;;;;;;;19.07;7.40;;;16.50;59.10;;;;;;5050141;28;20475;-75
2024/01/25 05:52:36;;;;;;;15.70;6.47;;;16.50;59.00;;;;;;5049821;28;20474;-75
2024/01/25 05:55:05;;;;;;;20.93;6.77;;;16.50;58.90;;;;;;5040030;28;20474;-75
2024/01/25 05:57:35;;;;;;;19.57;7.40;;;16.50;59.10;;;;;;5044104;28;20597;-76
2024/01/25 06:00:05;;;;;;;17.10;6.70;;;16.50;58.70;;;;;;5048075;28;20557;-75
2024/01/25 06:02:33;;;;;;;17.90;7.37;;;16.50;59.00;;;;;;5047885;28;20528;-76
2024/01/25 06:05:01;;;;;;;21.07;7.07;;;16.50;59.10;;;;;;5054052;28;20458;-75
2024/01/25 06:07:30;;;;;;;17.37;6.43;;;16.50;59.20;;;;;;5049449;28;20461;-75
2024/01/25 06:09:59;;;;;;;17.33;6.67;;;16.50;59.10;;;;;;5041674;28;20562;-75
2024/01/25 06:12:27;;;;;;;15.40;6.03;;;16.50;59.20;;;;;;5048972;28;20435;-76
2024/01/25 06:14:55;;;;;;;14.87;5.67;;;16.50;59.20;;;;;;5049300;28;20434;-75
2024/01/25 06:17:23;;;;;;;12.13;5.37;;;16.50;59.10;;;;;;5045369;28;20447;-76
2024/01/25 06:19:51;;;;;;;11.67;5.73;;;16.50;59.30;;;;;;5046150;28;20574;-74
2024/01/25 06:22:20;;;;;;;14.83;5.90;;;16.50;59.20;;;;;;5049232;28;20473;-75
2024/01/25 06:24:49;;;;;;;12.73;5.67;;;16.50;59.30;;;;;;5049297;28;20446;-74
2024/01/25 06:27:18;;;;;;;15.23;5.67;;;16.50;59.20;;;;;;5049788;28;20450;-74
2024/01/25 06:29:46;;;;;;;19.73;5.67;;;16.50;59.40;;;;;;5047449;28;20486;-75
2024/01/25 06:32:14;;;;;;;20.27;5.80;;;16.50;59.40;;;;;;5049352;28;20450;-76
2024/01/25 06:34:54;;;;;;;21.67;6.70;;;16.50;59.20;;;;;;5049728;28;20515;-75
2024/01/25 06:37:23;;;;;;;14.27;5.40;;;16.50;59.30;;;;;;5049161;28;20450;-75
2024/01/25 06:39:52;;;;;;;13.80;5.53;;;16.50;59.20;;;;;;5049999;28;20465;-75
2024/01/25 06:42:20;;;;;;;15.97;5.50;;;16.50;59.30;;;;;;5043831;28;20470;-74
2024/01/25 06:44:48;;;;;;;18.37;5.50;;;16.50;59.40;;;;;;5044596;28;20447;-75
2024/01/25 06:47:17;;;;;;;12.80;5.50;;;16.50;59.40;;;;;;5047066;28;20426;-75
2024/01/25 06:49:51;;;;;;;13.33;5.40;;;16.50;59.30;;;;;;5052740;28;20450;-74
2024/01/25 06:52:19;;;;;;;16.87;5.47;;;16.50;58.90;;;;;;5051269;28;20453;-75
2024/01/25 06:54:48;;;;;;;12.37;5.10;;;16.50;59.40;;;;;;5052281;28;20488;-75
2024/01/25 06:57:18;;;;;;;16.53;5.23;;;16.50;59.40;;;;;;5051190;28;20435;-74
2024/01/25 06:59:46;;;;;;;19.77;5.40;;;16.50;59.30;;;;;;5047010;28;20467;-75
2024/01/25 07:02:14;;;;;;;14.10;5.20;;;16.50;59.30;;;;;;5045198;28;20560;-74
2024/01/25 07:04:43;;;;;;;12.33;5.00;;;16.50;59.40;;;;;;5052598;28;20466;-74
2024/01/25 07:07:11;;;;;;;10.57;4.47;;;16.50;59.40;;;;;;5052103;28;20443;-74
2024/01/25 07:09:39;;;;;;;17.63;5.40;;;16.50;59.40;;;;;;5051055;28;20493;-74
2024/01/25 07:12:08;;;;;;;16.77;4.80;;;16.50;59.40;;;;;;5053426;28;20459;-75
2024/01/25 07:14:37;;;;;;;10.97;4.67;;;16.50;59.60;;;;;;5050823;28;20454;-76
2024/01/25 07:17:05;;;;;;;13.60;4.53;;;16.50;59.30;;;;;;5052534;28;20454;-75
2024/01/25 07:19:33;;;;;;;13.50;5.07;;;16.50;59.40;;;;;;5058428;28;20450;-76
2024/01/25 07:22:01;;;;;;;11.17;4.50;;;16.50;59.30;;;;;;5053927;28;20431;-77
2024/01/25 07:24:30;;;;;;;13.07;4.83;;;16.50;59.50;;;;;;5052733;28;20470;-76
2024/01/25 07:26:58;;;;;;;16.40;4.77;;;16.50;59.40;;;;;;5052230;28;20477;-75
2024/01/25 07:29:28;;;;;;;12.67;4.90;;;16.60;59.60;;;;;;5044841;28;20447;-74
2024/01/25 07:31:58;;;;;;;11.50;4.80;;;16.60;59.60;;;;;;5051560;28;20451;-76
2024/01/25 07:34:26;;;;;;;12.07;5.00;;;16.60;59.50;;;;;;5044074;28;20525;-75
2024/01/25 07:36:54;;;;;;;10.90;4.67;;;16.60;59.50;;;;;;5052299;28;20470;-76
2024/01/25 07:39:22;;;;;;;16.90;5.50;;;16.60;59.50;;;;;;5052973;28;20727;-76
2024/01/25 07:41:51;;;;;;;12.57;4.90;;;16.60;59.50;;;;;;5046204;28;20926;-80
2024/01/25 07:44:19;;;;;;;14.63;4.60;;;16.60;59.70;;;;;;5053057;28;20989;-75
2024/01/25 07:46:48;;;;;;;12.93;4.87;;;16.60;59.60;;;;;;5055625;28;20545;-79
2024/01/25 07:49:17;;;;;;;13.63;4.90;;;16.60;59.60;;;;;;5049268;28;20454;-77
2024/01/25 07:51:46;;;;;;;11.33;4.53;;;16.60;59.50;;;;;;5053624;28;20447;-75
2024/01/25 07:54:15;;;;;;;13.80;4.77;;;16.60;59.70;;;;;;5052249;28;20462;-76
2024/01/25 07:56:43;;;;;;;19.60;4.67;;;16.60;59.80;;;;;;5054509;28;20455;-77
2024/01/25 07:59:12;;;;;;;8.93;4.40;;;16.60;59.70;;;;;;5047852;28;20451;-76
2024/01/25 08:01:40;;;;;;;13.30;4.47;;;16.60;59.60;;;;;;5052119;28;20461;-75
2024/01/25 08:04:08;;;;;;;13.23;4.40;;;16.60;59.50;;;;;;5048043;28;20488;-76
2024/01/25 08:06:39;;;;;;;10.13;4.00;;;16.60;59.40;;;;;;5045124;28;20473;-76
2024/01/25 08:09:08;;;;;;;14.17;4.33;;;16.60;59.30;;;;;;5057658;28;20439;-77
2024/01/25 08:11:36;;;;;;;10.60;4.03;;;16.60;59.20;;;;;;5050583;28;20463;-75
2024/01/25 08:14:05;;;;;;;12.63;4.50;;;16.60;59.20;;;;;;5045653;28;20533;-75
2024/01/25 08:16:35;;;;;;;14.07;4.77;;;16.60;59.20;;;;;;5051816;28;20451;-74
2024/01/25 08:19:04;;;;;;;12.23;4.23;;;16.60;59.00;;;;;;5049461;28;20419;-75
2024/01/25 08:21:32;;;;;;;13.27;4.20;;;16.60;59.00;;;;;;5051699;28;20470;-76
2024/01/25 08:24:02;;;;;;;15.95;4.03;;;16.60;58.80;;;;;;5050546;28;20516;-77
2024/01/25 08:26:30;;;;;;;12.50;4.47;;;16.70;59.00;;;;;;5044532;28;20194;-76
2024/01/25 08:28:58;;;;;;;7.90;3.70;;;16.70;58.90;;;;;;5050934;28;20447;-77
2024/01/25 08:31:27;;;;;;;16.13;4.23;;;16.70;59.00;;;;;;5046575;28;20474;-75
2024/01/25 08:33:55;;;;;;;9.60;3.87;;;16.70;59.10;;;;;;5052898;28;20437;-77
2024/01/25 08:36:24;;;;;;;13.03;4.53;;;16.70;59.10;;;;;;5052683;28;20509;-77
2024/01/25 08:38:52;;;;;;;13.80;4.80;;;16.70;59.20;;;;;;5051120;28;20456;-76
2024/01/25 08:41:21;;;;;;;13.47;4.60;;;16.80;59.10;;;;;;5050114;28;20474;-77
2024/01/25 08:43:49;;;;;;;15.70;4.10;;;16.80;59.30;;;;;;5052330;28;20502;-75
2024/01/25 08:46:17;;;;;;;11.53;4.57;;;16.80;59.20;;;;;;5054161;28;20458;-76
2024/01/25 08:48:46;;;;;;;14.47;4.53;;;16.80;59.30;;;;;;5051102;28;20446;-76
2024/01/25 08:51:15;;;;;;;14.63;3.90;;;16.80;59.30;;;;;;5050057;28;20459;-77
2024/01/25 08:53:43;;;;;;;12.47;4.40;;;16.80;59.40;;;;;;5047544;28;20438;-77
2024/01/25 08:56:11;;;;;;;14.57;4.80;;;16.80;59.40;;;;;;5044755;28;20452;-77
2024/01/25 08:58:41;;;;;;;10.77;4.00;;;16.90;59.50;;;;;;5048218;28;20507;-76
2024/01/25 09:01:09;;;;;;;15.60;4.30;;;16.90;59.40;;;;;;5050160;28;20467;-76
2024/01/25 09:03:38;;;;;;;10.63;4.43;;;16.90;59.90;;;;;;5051066;28;20471;-76
2024/01/25 09:06:06;;;;;;;15.40;4.90;;;16.90;59.40;;;;;;5049767;28;20447;-77
2024/01/25 09:08:34;;;;;;;14.80;4.33;;;16.90;59.40;;;;;;5042817;28;20442;-77
2024/01/25 09:11:03;;;;;;;13.90;4.57;;;16.90;59.60;;;;;;5046335;28;20477;-77
2024/01/25 09:13:32;;;;;;;17.87;4.10;;;16.90;59.50;;;;;;5050260;28;20438;-76
2024/01/25 09:16:13;;;;;;;13.13;3.83;;;17.00;59.40;;;;;;5050312;28;20457;-78
2024/01/25 09:18:41;;;;;;;13.50;4.10;;;17.00;59.60;;;;;;5044924;28;20454;-77
2024/01/25 09:21:10;;;;;;;17.33;4.60;;;17.00;59.60;;;;;;5050405;28;20474;-78
2024/01/25 09:23:38;;;;;;;15.23;4.83;;;17.00;59.60;;;;;;5045090;28;20489;-76
2024/01/25 09:26:06;;;;;;;13.60;3.90;;;17.00;59.50;;;;;;5044157;28;20923;-77
2024/01/25 09:28:34;;;;;;;8.90;4.07;;;17.10;59.60;;;;;;5041289;28;20450;-78
2024/01/25 09:31:03;;;;;;;15.97;3.93;;;17.10;59.60;;;;;;5039208;28;20494;-75
2024/01/25 09:33:34;;;;;;;11.33;3.73;;;17.10;59.60;;;;;;5048334;28;20454;-76
2024/01/25 09:36:03;;;;;;;13.03;4.20;;;17.20;59.60;;;;;;5051759;28;20434;-76
2024/01/25 09:38:31;;;;;;;10.80;3.70;;;17.20;59.60;;;;;;5047823;28;20439;-76
2024/01/25 09:41:01;;;;;;;14.20;4.50;;;17.20;59.60;;;;;;5055742;28;20516;-75
2024/01/25 09:43:29;;;;;;;10.20;3.10;;;17.30;59.60;;;;;;5051785;28;20430;-76
2024/01/25 09:45:57;;;;;;;17.10;4.00;;;17.30;59.50;;;;;;5055734;28;20514;-76
2024/01/25 09:48:26;;;;;;;10.83;3.80;;;17.30;59.50;;;;;;5054931;28;20446;-76
2024/01/25 09:50:56;;;;;;;11.33;3.90;;;17.30;59.40;;;;;;5059195;28;20496;-77
2024/01/25 09:53:25;;;;;;;14.60;4.10;;;17.30;59.50;;;;;;5049938;28;20447;-76
2024/01/25 09:55:57;;;;;;;10.77;3.40;;;17.30;59.50;;;;;;5049911;28;20440;-75
2024/01/25 09:58:27;;;;;;;8.23;3.70;;;17.30;59.60;;;;;;5050227;28;20442;-76
2024/01/25 10:00:55;;;;;;;22.10;5.00;;;17.30;59.50;;;;;;5057035;28;20471;-75
2024/01/25 10:03:23;;;;;;;12.57;4.00;;;17.30;59.50;;;;;;5053396;28;20446;-77
2024/01/25 10:05:51;;;;;;;15.43;3.80;;;17.40;59.50;;;;;;5044174;28;20479;-77
2024/01/25 10:08:23;;;;;;;14.40;3.50;;;17.30;59.50;;;;;;5048339;28;20447;-76
2024/01/25 10:10:53;;;;;;;11.77;4.17;;;17.30;59.50;;;;;;5049997;28;20485;-77
2024/01/25 10:13:21;;;;;;;11.13;3.70;;;17.30;59.60;;;;;;5049242;28;20431;-76
2024/01/25 10:15:49;;;;;;;11.37;3.87;;;17.40;59.70;;;;;;5045709;28;20418;-75
2024/01/25 10:18:18;;;;;;;12.03;3.80;;;17.40;59.70;;;;;;5049266;28;20446;-77
2024/01/25 10:20:56;;;;;;;7.53;3.60;;;17.40;59.70;;;;;;5052548;28;20524;-77
2024/01/25 10:23:27;;;;;;;11.00;3.57;;;17.40;59.80;;;;;;5046216;28;20446;-78
2024/01/25 10:25:57;;;;;;;10.50;3.70;;;17.50;59.60;;;;;;5052334;28;20502;-76
2024/01/25 10:28:28;;;;;;;9.50;3.73;;;17.50;59.60;;;;;;5052843;28;20516;-78
2024/01/25 10:30:57;;;;;;;11.90;3.63;;;17.60;59.70;;;;;;5055767;28;20462;-77
2024/01/25 10:33:25;;;;;;;11.43;3.47;;;17.60;59.60;;;;;;5053279;28;20450;-75
2024/01/25 10:35:55;;;;;;;20.63;3.73;;;17.60;59.40;;;;;;5053589;28;20431;-76
2024/01/25 10:38:23;;;;;;;9.97;3.70;;;17.60;59.50;;;;;;5055077;28;20489;-77
2024/01/25 10:40:54;;;;;;;8.63;3.40;;;17.60;59.50;;;;;;5047962;28;20469;-78
2024/01/25 10:43:22;;;;;;;13.40;4.13;;;17.60;59.50;;;;;;5055249;28;20474;-77
2024/01/25 10:45:55;;;;;;;17.20;4.30;;;17.70;59.50;;;;;;5058611;28;20474;-77
2024/01/25 10:48:34;;;;;;;13.13;4.00;;;17.60;59.50;;;;;;5063735;28;20450;-77
2024/01/25 10:51:06;;;;;;;10.40;3.70;;;17.60;59.60;;;;;;5065822;28;20470;-78
2024/01/25 10:53:35;;;;;;;16.87;4.03;;;17.60;59.60;;;;;;5059164;28;20458;-77
2024/01/25 10:56:06;;;;;;;10.27;3.53;;;17.70;59.70;;;;;;5056849;28;20453;-77
2024/01/25 10:58:36;;;;;;;11.70;3.43;;;17.70;59.60;;;;;;5055039;28;20548;-76
2024/01/25 11:01:10;;;;;;;15.83;3.40;;;17.70;59.50;;;;;;5054802;28;20470;-77
2024/01/25 11:03:44;;;;;;;14.50;4.50;;;17.70;59.50;;;;;;5053713;28;20480;-77
2024/01/25 11:06:15;;;;;;;11.73;3.77;;;17.70;59.60;;;;;;5050869;28;20553;-77
2024/01/25 11:08:44;;;;;;;8.97;3.70;;;17.80;59.80;;;;;;5052670;28;20538;-74
2024/01/25 11:11:15;;;;;;;9.00;3.90;;;17.80;59.80;;;;;;5053391;28;20470;-75
2024/01/25 11:13:45;;;;;;;14.00;3.80;;;17.90;59.70;;;;;;5052406;28;20470;-75
2024/01/25 11:16:14;;;;;;;10.00;3.47;;;18.00;59.40;;;;;;5052614;28;20537;-75
2024/01/25 11:18:50;;;;;;;11.03;3.30;;;18.00;59.50;;;;;;5053018;28;20438;-76
2024/01/25 11:21:28;;;;;;;11.30;3.50;;;18.10;59.50;;;;;;5053014;28;20474;-75
2024/01/25 11:24:01;;;;;;;12.43;4.70;;;18.20;59.50;;;;;;5046384;28;20972;-75
2024/01/25 11:26:33;;;;;;;11.30;3.70;;;18.20;59.20;;;;;;5053033;28;20470;-76
2024/01/25 11:29:01;;;;;;;13.17;3.60;;;18.10;59.20;;;;;;5053359;28;20442;-76
2024/01/25 11:31:29;;;;;;;13.27;3.70;;;18.10;59.30;;;;;;5052829;28;20489;-75
2024/01/25 11:33:58;;;;;;;8.93;3.70;;;18.20;59.30;;;;;;5052296;28;20514;-75
2024/01/25 11:36:27;;;;;;;10.33;3.23;;;18.20;59.20;;;;;;5053516;28;20453;-75
2024/01/25 11:38:55;;;;;;;9.00;3.40;;;18.20;59.30;;;;;;5053660;28;20469;-76
2024/01/25 11:41:23;;;;;;;11.93;3.77;;;18.30;59.50;;;;;;5054403;28;20470;-76
2024/01/25 11:43:53;;;;;;;10.90;3.17;;;18.30;59.30;;;;;;5053037;28;20493;-75
2024/01/25 11:46:22;;;;;;;13.50;3.60;;;18.30;59.40;;;;;;5053222;28;20480;-76
2024/01/25 11:48:50;;;;;;;10.67;3.20;;;18.40;59.50;;;;;;5053032;28;20426;-76
2024/01/25 11:51:18;;;;;;;15.20;3.33;;;18.50;59.50;;;;;;5052982;28;20497;-74
2024/01/25 11:53:46;;;;;;;14.00;3.87;;;18.60;59.30;;;;;;5053083;28;20517;-75
2024/01/25 11:56:17;;;;;;;13.20;3.90;;;18.70;59.10;;;;;;5052938;28;20447;-75
2024/01/25 11:58:56;;;;;;;11.00;3.57;;;18.90;59.30;;;;;;5053079;28;20442;-75
2024/01/25 12:01:27;;;;;;;8.73;3.20;;;19.00;59.30;;;;;;5052694;28;20468;-75
2024/01/25 12:04:04;;;;;;;11.27;3.50;;;19.10;59.30;;;;;;5052539;28;20450;-76
2024/01/25 12:06:40;;;;;;;9.10;3.27;;;19.60;59.80;;;;;;5052284;28;20474;-75
2024/01/25 12:09:15;;;;;;;10.70;3.67;;;19.80;59.40;;;;;;5052591;28;20596;-75
2024/01/25 12:11:54;;;;;;;11.50;3.20;;;19.90;58.30;;;;;;5055102;28;20469;-75
2024/01/25 12:14:26;;;;;;;10.67;3.30;;;19.90;58.00;;;;;;5051923;28;20442;-75
2024/01/25 12:16:58;;;;;;;9.37;3.60;;;19.70;57.90;;;;;;5055978;28;20438;-77
2024/01/25 12:19:51;;;;;;;8.67;3.37;;;19.60;58.10;;;;;;5052587;28;20446;-77
2024/01/25 12:22:23;;;;;;;9.73;3.30;;;19.60;58.30;;;;;;5046486;28;21004;-75
2024/01/25 12:24:55;;;;;;;15.83;3.43;;;19.50;58.50;;;;;;5052714;28;20451;-76
2024/01/25 12:27:30;;;;;;;10.77;3.50;;;19.50;58.50;;;;;;5052026;28;20432;-75
2024/01/25 12:30:00;;;;;;;9.10;3.40;;;19.50;58.80;;;;;;5052424;28;20439;-76
2024/01/25 12:32:35;;;;;;;10.37;2.83;;;19.60;59.00;;;;;;5052348;28;20435;-77
2024/01/25 12:35:07;;;;;;;9.77;3.30;;;19.70;58.70;;;;;;5052162;28;20453;-77
2024/01/25 12:37:49;;;;;;;13.40;3.40;;;19.80;58.70;;;;;;5052747;28;20499;-77
2024/01/25 12:40:18;;;;;;;10.60;3.10;;;19.80;58.60;;;;;;5051979;28;20462;-76
2024/01/25 12:42:54;;;;;;;8.60;3.00;;;19.90;59.40;;;;;;5052153;28;20446;-77
2024/01/25 12:45:30;;;;;;;8.53;3.50;;;20.20;58.80;;;;;;5052298;28;20446;-77
2024/01/25 12:48:02;;;;;;;10.70;3.53;;;20.50;58.90;;;;;;5052423;28;20469;-75